aviador You're here:

KFTY Decoded Metar

ATLANTA/FULTON in GA, USA
Report Time2018-02-19 11:53:00
UTC Time2018-02-19 12:09:37
Flight Rules lifr LIFR
Wind070° at 05 kt
W.Decomp.*RWY 08: 5.0 kt HW 0.4 kt LCW
RWY 09: 4.8 kt HW 1.3 kt LCW
RWY 14: 2.1 kt HW 4.5 kt LCW
W.Rank070° ranks 10
Current wind is below 070° avg. (6.8)
Visibility4023 m
Phenomena:Mist
Clouds:Overcast 004 Hf
Ceiling400 ft
Temp15°C (ISA +2)
Dew Point15°C (100% RH)
AAT14.8°C
QNH1026 hPa
Density Alt860 ft
Elevation863 ft
Report Wrong Elevation
Raw Report
METAR KFTY 191153Z 07005KT 2 1/2SM BR OVC004 15/15 A3031 RMK AO2 SLP261
70008 T01500150 10156 20150 51015 $=

Extra information for KFTY:More info

Metar Taf Metar & Taf Last 4 Metars F.Rules Stats Wind Profile Meteogram Temp Stats Airport Information Weather charts Add Link Nearby VenuesMetar ALERT Operation Metar Decoded Social comments

AIRNAV info for KFTY